Airfield :
LOGIN :

Register | Disclaimer

   EN    FR    IT 

 










Legend :    VFR   Marginal VFR   IFR   Intensive IFR   Very Intensive IFR
Visi :
Ceiling :
>= 8 km
>= 3000ft
5 to 8 km
1000 to 3000 ft
1500m to 5 km
500 to 1000 ft
800 to 1500m
200 to 500 ft
< 800m
< 200 ft
Symbols :   Thunderstorms  Fog  Heavy snow  Heavy precipitations  Wind > 20 kt
SIGMETs :     Misc.  Thunderstorms  Icing  Turbulence  Mountain Waves  Volcanic Ashes






- Airport Elevation : 289 ft


LFYR - Romorantin Pruniers

CURRENT METAR :
  • 281930Z AUTO VRB01KT CAVOK 18/06 Q1017

EXPIRED METARs :
  • 281900Z AUTO VRB03KT CAVOK 19/06 Q1017
  • 281830Z AUTO 02003KT 300V100 CAVOK 20/06 Q1017
  • 281800Z AUTO 01005KT 320V060 CAVOK 21/06 Q1017
  • 281730Z AUTO 01005KT 300V070 CAVOK 21/05 Q1017
  • 281700Z AUTO 03007KT 330V080 CAVOK 22/05 Q1018

Expired Forecast.



MET'MAP, your aeronautical weather chart ! - Copyright ORBIFLY December 2007 - Disclaimer

ORBIFLY MET'MAP TEAM :

Programming & Development : Alexandra Zaïnal
Original concept : Baudouin d'Aumeries
Technical & hardware support : Manuel Goepfert
Assistance : Marc-Olivier Méhu

Contact : metmap@orbifly.com




SOURCES & CREDITS :

   NOAA